sensor_id;sensor_type;location;lat;lon;timestamp;P1;durP1;ratioP1;P2;durP2;ratioP2
27225;SDS011;14732;51.074;3.788;2023-06-10T00:01:29;11.15;;;8.70;;
27225;SDS011;14732;51.074;3.788;2023-06-10T00:03:55;10.70;;;8.90;;
27225;SDS011;14732;51.074;3.788;2023-06-10T00:06:21;9.75;;;8.73;;
27225;SDS011;14732;51.074;3.788;2023-06-10T00:08:49;12.13;;;8.48;;
27225;SDS011;14732;51.074;3.788;2023-06-10T00:11:15;10.57;;;8.75;;
27225;SDS011;14732;51.074;3.788;2023-06-10T00:13:41;13.07;;;8.55;;
27225;SDS011;14732;51.074;3.788;2023-06-10T00:16:07;12.27;;;8.57;;
27225;SDS011;14732;51.074;3.788;2023-06-10T00:18:33;10.80;;;8.52;;
27225;SDS011;14732;51.074;3.788;2023-06-10T00:21:02;10.50;;;8.38;;
27225;SDS011;14732;51.074;3.788;2023-06-10T00:23:30;9.65;;;7.93;;
27225;SDS011;14732;51.074;3.788;2023-06-10T00:25:59;14.52;;;8.93;;
27225;SDS011;14732;51.074;3.788;2023-06-10T00:28:25;9.37;;;8.40;;
27225;SDS011;14732;51.074;3.788;2023-06-10T00:30:51;11.75;;;8.13;;
27225;SDS011;14732;51.074;3.788;2023-06-10T00:33:17;14.88;;;8.57;;
27225;SDS011;14732;51.074;3.788;2023-06-10T00:35:42;12.10;;;8.70;;
27225;SDS011;14732;51.074;3.788;2023-06-10T00:38:08;13.05;;;8.70;;
27225;SDS011;14732;51.074;3.788;2023-06-10T00:40:40;9.45;;;8.40;;
27225;SDS011;14732;51.074;3.788;2023-06-10T00:43:07;11.13;;;8.93;;
27225;SDS011;14732;51.074;3.788;2023-06-10T00:45:33;10.30;;;8.65;;
27225;SDS011;14732;51.074;3.788;2023-06-10T00:47:59;11.00;;;8.38;;
27225;SDS011;14732;51.074;3.788;2023-06-10T00:50:26;9.43;;;8.43;;
27225;SDS011;14732;51.074;3.788;2023-06-10T00:52:53;10.70;;;9.25;;
27225;SDS011;14732;51.074;3.788;2023-06-10T00:55:22;11.35;;;8.60;;
27225;SDS011;14732;51.074;3.788;2023-06-10T00:57:50;12.52;;;8.98;;
27225;SDS011;14732;51.074;3.788;2023-06-10T01:00:16;11.63;;;8.88;;
27225;SDS011;14732;51.074;3.788;2023-06-10T01:02:43;11.57;;;8.75;;
27225;SDS011;14732;51.074;3.788;2023-06-10T01:05:09;9.75;;;8.80;;
27225;SDS011;14732;51.074;3.788;2023-06-10T01:07:56;12.48;;;9.10;;
27225;SDS011;14732;51.074;3.788;2023-06-10T01:10:46;9.70;;;8.67;;
27225;SDS011;14732;51.074;3.788;2023-06-10T01:13:24;10.10;;;8.95;;
27225;SDS011;14732;51.074;3.788;2023-06-10T01:15:58;11.23;;;8.90;;
27225;SDS011;14732;51.074;3.788;2023-06-10T01:18:29;11.68;;;8.88;;
27225;SDS011;14732;51.074;3.788;2023-06-10T01:20:56;11.85;;;8.93;;
27225;SDS011;14732;51.074;3.788;2023-06-10T01:23:22;10.38;;;9.02;;
27225;SDS011;14732;51.074;3.788;2023-06-10T01:26:02;15.10;;;9.23;;
27225;SDS011;14732;51.074;3.788;2023-06-10T01:34:19;11.30;;;8.65;;
27225;SDS011;14732;51.074;3.788;2023-06-10T01:36:48;10.68;;;9.30;;
27225;SDS011;14732;51.074;3.788;2023-06-10T01:39:16;12.35;;;8.85;;
27225;SDS011;14732;51.074;3.788;2023-06-10T01:41:45;10.20;;;9.18;;
27225;SDS011;14732;51.074;3.788;2023-06-10T01:44:12;14.48;;;9.13;;
27225;SDS011;14732;51.074;3.788;2023-06-10T01:46:46;14.55;;;9.18;;
27225;SDS011;14732;51.074;3.788;2023-06-10T01:49:12;10.10;;;9.10;;
27225;SDS011;14732;51.074;3.788;2023-06-10T01:51:38;11.98;;;9.43;;
27225;SDS011;14732;51.074;3.788;2023-06-10T01:54:04;11.70;;;9.65;;
27225;SDS011;14732;51.074;3.788;2023-06-10T01:56:31;10.75;;;9.65;;
27225;SDS011;14732;51.074;3.788;2023-06-10T01:58:57;10.63;;;9.55;;
27225;SDS011;14732;51.074;3.788;2023-06-10T02:01:27;10.30;;;9.30;;
27225;SDS011;14732;51.074;3.788;2023-06-10T02:03:53;10.45;;;9.43;;
27225;SDS011;14732;51.074;3.788;2023-06-10T02:06:19;10.68;;;9.57;;
27225;SDS011;14732;51.074;3.788;2023-06-10T02:08:45;10.63;;;9.35;;
27225;SDS011;14732;51.074;3.788;2023-06-10T02:11:10;14.27;;;9.57;;
27225;SDS011;14732;51.074;3.788;2023-06-10T02:13:37;13.73;;;9.80;;
27225;SDS011;14732;51.074;3.788;2023-06-10T02:16:03;11.50;;;9.48;;
27225;SDS011;14732;51.074;3.788;2023-06-10T02:18:30;13.88;;;9.45;;
27225;SDS011;14732;51.074;3.788;2023-06-10T02:20:56;10.70;;;9.45;;
27225;SDS011;14732;51.074;3.788;2023-06-10T02:23:22;11.15;;;9.70;;
27225;SDS011;14732;51.074;3.788;2023-06-10T02:25:48;10.70;;;9.60;;
27225;SDS011;14732;51.074;3.788;2023-06-10T02:28:13;10.32;;;9.32;;
27225;SDS011;14732;51.074;3.788;2023-06-10T02:30:40;12.77;;;9.90;;
27225;SDS011;14732;51.074;3.788;2023-06-10T02:33:06;11.23;;;10.10;;
27225;SDS011;14732;51.074;3.788;2023-06-10T02:35:35;11.00;;;9.82;;
27225;SDS011;14732;51.074;3.788;2023-06-10T02:38:02;12.18;;;9.57;;
27225;SDS011;14732;51.074;3.788;2023-06-10T02:40:27;14.40;;;9.68;;
27225;SDS011;14732;51.074;3.788;2023-06-10T02:42:53;16.33;;;10.35;;
27225;SDS011;14732;51.074;3.788;2023-06-10T02:45:19;14.93;;;9.70;;
27225;SDS011;14732;51.074;3.788;2023-06-10T02:47:45;11.40;;;9.98;;
27225;SDS011;14732;51.074;3.788;2023-06-10T02:50:11;16.95;;;10.45;;
27225;SDS011;14732;51.074;3.788;2023-06-10T02:52:36;11.50;;;10.00;;
27225;SDS011;14732;51.074;3.788;2023-06-10T02:55:02;10.75;;;9.68;;
27225;SDS011;14732;51.074;3.788;2023-06-10T02:57:28;11.98;;;10.77;;
27225;SDS011;14732;51.074;3.788;2023-06-10T02:59:54;11.98;;;10.32;;
27225;SDS011;14732;51.074;3.788;2023-06-10T03:02:19;11.80;;;9.80;;
27225;SDS011;14732;51.074;3.788;2023-06-10T03:04:47;11.85;;;10.65;;
27225;SDS011;14732;51.074;3.788;2023-06-10T03:07:15;12.52;;;10.32;;
27225;SDS011;14732;51.074;3.788;2023-06-10T03:09:41;12.80;;;10.10;;
27225;SDS011;14732;51.074;3.788;2023-06-10T03:12:07;11.82;;;10.63;;
27225;SDS011;14732;51.074;3.788;2023-06-10T03:14:33;16.35;;;10.73;;
27225;SDS011;14732;51.074;3.788;2023-06-10T03:16:59;15.00;;;11.10;;
27225;SDS011;14732;51.074;3.788;2023-06-10T03:19:25;12.05;;;10.40;;
27225;SDS011;14732;51.074;3.788;2023-06-10T03:21:58;11.65;;;10.45;;
27225;SDS011;14732;51.074;3.788;2023-06-10T03:24:33;14.13;;;10.52;;
27225;SDS011;14732;51.074;3.788;2023-06-10T03:27:01;11.95;;;10.43;;
27225;SDS011;14732;51.074;3.788;2023-06-10T03:29:29;12.02;;;10.75;;
27225;SDS011;14732;51.074;3.788;2023-06-10T03:31:55;13.27;;;10.82;;
27225;SDS011;14732;51.074;3.788;2023-06-10T03:34:21;13.90;;;11.00;;
27225;SDS011;14732;51.074;3.788;2023-06-10T03:36:48;13.02;;;10.98;;
27225;SDS011;14732;51.074;3.788;2023-06-10T03:39:14;16.63;;;11.60;;
27225;SDS011;14732;51.074;3.788;2023-06-10T03:41:41;16.60;;;11.20;;
27225;SDS011;14732;51.074;3.788;2023-06-10T03:44:07;15.75;;;11.18;;
27225;SDS011;14732;51.074;3.788;2023-06-10T03:46:33;13.70;;;11.27;;
27225;SDS011;14732;51.074;3.788;2023-06-10T03:49:00;15.40;;;11.80;;
27225;SDS011;14732;51.074;3.788;2023-06-10T03:51:26;16.38;;;11.38;;
27225;SDS011;14732;51.074;3.788;2023-06-10T03:53:56;14.75;;;11.32;;
27225;SDS011;14732;51.074;3.788;2023-06-10T03:56:22;15.82;;;11.02;;
27225;SDS011;14732;51.074;3.788;2023-06-10T03:58:51;22.98;;;11.50;;
27225;SDS011;14732;51.074;3.788;2023-06-10T04:01:20;12.95;;;11.45;;
27225;SDS011;14732;51.074;3.788;2023-06-10T04:03:49;14.88;;;11.35;;
27225;SDS011;14732;51.074;3.788;2023-06-10T04:06:16;13.10;;;11.48;;
27225;SDS011;14732;51.074;3.788;2023-06-10T04:08:42;14.43;;;11.88;;
27225;SDS011;14732;51.074;3.788;2023-06-10T04:11:08;13.50;;;11.18;;
27225;SDS011;14732;51.074;3.788;2023-06-10T04:13:34;16.58;;;11.57;;
27225;SDS011;14732;51.074;3.788;2023-06-10T04:16:00;16.00;;;11.35;;
27225;SDS011;14732;51.074;3.788;2023-06-10T04:18:27;14.80;;;11.15;;
27225;SDS011;14732;51.074;3.788;2023-06-10T04:20:58;19.65;;;11.18;;
27225;SDS011;14732;51.074;3.788;2023-06-10T04:23:25;16.27;;;11.68;;
27225;SDS011;14732;51.074;3.788;2023-06-10T04:25:51;14.90;;;10.93;;
27225;SDS011;14732;51.074;3.788;2023-06-10T04:28:17;15.65;;;11.45;;
27225;SDS011;14732;51.074;3.788;2023-06-10T04:30:43;18.45;;;11.20;;
27225;SDS011;14732;51.074;3.788;2023-06-10T04:33:11;14.80;;;11.55;;
27225;SDS011;14732;51.074;3.788;2023-06-10T04:35:36;12.23;;;10.93;;
27225;SDS011;14732;51.074;3.788;2023-06-10T04:38:02;13.95;;;11.48;;
27225;SDS011;14732;51.074;3.788;2023-06-10T04:40:29;13.65;;;11.85;;
27225;SDS011;14732;51.074;3.788;2023-06-10T04:42:55;15.45;;;11.02;;
27225;SDS011;14732;51.074;3.788;2023-06-10T04:45:23;12.55;;;11.25;;
27225;SDS011;14732;51.074;3.788;2023-06-10T04:47:48;18.55;;;11.63;;
27225;SDS011;14732;51.074;3.788;2023-06-10T04:50:14;17.52;;;10.95;;
27225;SDS011;14732;51.074;3.788;2023-06-10T04:52:40;15.70;;;11.15;;
27225;SDS011;14732;51.074;3.788;2023-06-10T04:55:06;14.77;;;11.52;;
27225;SDS011;14732;51.074;3.788;2023-06-10T04:57:32;12.48;;;11.18;;
27225;SDS011;14732;51.074;3.788;2023-06-10T04:59:58;14.90;;;11.02;;
27225;SDS011;14732;51.074;3.788;2023-06-10T05:02:24;12.02;;;10.68;;
27225;SDS011;14732;51.074;3.788;2023-06-10T05:04:49;13.55;;;10.27;;
27225;SDS011;14732;51.074;3.788;2023-06-10T05:07:15;13.05;;;9.73;;
27225;SDS011;14732;51.074;3.788;2023-06-10T05:09:41;11.30;;;10.10;;
27225;SDS011;14732;51.074;3.788;2023-06-10T05:12:11;15.07;;;10.07;;
27225;SDS011;14732;51.074;3.788;2023-06-10T05:14:37;11.75;;;9.40;;
27225;SDS011;14732;51.074;3.788;2023-06-10T05:17:04;15.75;;;9.98;;
27225;SDS011;14732;51.074;3.788;2023-06-10T05:19:31;14.90;;;10.13;;
27225;SDS011;14732;51.074;3.788;2023-06-10T05:21:57;11.57;;;9.93;;
27225;SDS011;14732;51.074;3.788;2023-06-10T05:24:23;12.75;;;10.55;;
27225;SDS011;14732;51.074;3.788;2023-06-10T05:26:49;11.77;;;10.50;;
27225;SDS011;14732;51.074;3.788;2023-06-10T05:29:15;11.48;;;10.18;;
27225;SDS011;14732;51.074;3.788;2023-06-10T05:31:41;11.48;;;10.10;;
27225;SDS011;14732;51.074;3.788;2023-06-10T05:34:07;11.57;;;10.23;;
27225;SDS011;14732;51.074;3.788;2023-06-10T05:36:32;10.85;;;9.80;;
27225;SDS011;14732;51.074;3.788;2023-06-10T05:38:58;11.35;;;10.00;;
27225;SDS011;14732;51.074;3.788;2023-06-10T05:41:24;13.13;;;10.13;;
27225;SDS011;14732;51.074;3.788;2023-06-10T05:43:50;12.98;;;9.40;;
27225;SDS011;14732;51.074;3.788;2023-06-10T05:46:16;12.10;;;9.73;;
27225;SDS011;14732;51.074;3.788;2023-06-10T05:48:42;11.20;;;9.27;;
27225;SDS011;14732;51.074;3.788;2023-06-10T05:51:07;11.02;;;9.45;;
27225;SDS011;14732;51.074;3.788;2023-06-10T05:53:33;14.18;;;8.93;;
27225;SDS011;14732;51.074;3.788;2023-06-10T05:55:59;11.90;;;9.27;;
27225;SDS011;14732;51.074;3.788;2023-06-10T05:58:24;13.63;;;10.05;;
27225;SDS011;14732;51.074;3.788;2023-06-10T06:00:50;10.23;;;9.23;;
27225;SDS011;14732;51.074;3.788;2023-06-10T06:03:16;10.55;;;9.27;;
27225;SDS011;14732;51.074;3.788;2023-06-10T06:05:43;10.90;;;9.80;;
27225;SDS011;14732;51.074;3.788;2023-06-10T06:08:11;9.82;;;8.82;;
27225;SDS011;14732;51.074;3.788;2023-06-10T06:10:38;10.95;;;9.07;;
27225;SDS011;14732;51.074;3.788;2023-06-10T06:13:04;10.30;;;9.20;;
27225;SDS011;14732;51.074;3.788;2023-06-10T06:15:30;11.55;;;8.77;;
27225;SDS011;14732;51.074;3.788;2023-06-10T06:17:55;13.38;;;9.73;;
27225;SDS011;14732;51.074;3.788;2023-06-10T06:20:23;9.25;;;8.27;;
27225;SDS011;14732;51.074;3.788;2023-06-10T06:22:49;11.57;;;9.25;;
27225;SDS011;14732;51.074;3.788;2023-06-10T06:25:15;11.82;;;9.60;;
27225;SDS011;14732;51.074;3.788;2023-06-10T06:27:43;12.18;;;8.98;;
27225;SDS011;14732;51.074;3.788;2023-06-10T06:30:08;16.05;;;9.60;;
27225;SDS011;14732;51.074;3.788;2023-06-10T06:32:35;10.82;;;8.15;;
27225;SDS011;14732;51.074;3.788;2023-06-10T06:35:02;13.13;;;9.20;;
27225;SDS011;14732;51.074;3.788;2023-06-10T06:37:28;10.38;;;8.48;;
27225;SDS011;14732;51.074;3.788;2023-06-10T06:39:53;10.48;;;8.75;;
27225;SDS011;14732;51.074;3.788;2023-06-10T06:42:19;10.15;;;8.95;;
27225;SDS011;14732;51.074;3.788;2023-06-10T06:44:46;11.48;;;8.65;;
27225;SDS011;14732;51.074;3.788;2023-06-10T06:47:12;11.90;;;9.00;;
27225;SDS011;14732;51.074;3.788;2023-06-10T06:49:39;10.57;;;8.80;;
27225;SDS011;14732;51.074;3.788;2023-06-10T06:52:05;11.10;;;9.52;;
27225;SDS011;14732;51.074;3.788;2023-06-10T06:54:32;10.88;;;9.20;;
27225;SDS011;14732;51.074;3.788;2023-06-10T06:56:58;9.65;;;8.70;;
27225;SDS011;14732;51.074;3.788;2023-06-10T06:59:24;12.75;;;9.27;;
27225;SDS011;14732;51.074;3.788;2023-06-10T07:01:52;11.40;;;9.43;;
27225;SDS011;14732;51.074;3.788;2023-06-10T07:06:47;12.13;;;9.77;;
27225;SDS011;14732;51.074;3.788;2023-06-10T07:09:13;12.45;;;9.52;;
27225;SDS011;14732;51.074;3.788;2023-06-10T07:11:40;12.00;;;9.10;;
27225;SDS011;14732;51.074;3.788;2023-06-10T07:14:06;10.57;;;9.20;;
27225;SDS011;14732;51.074;3.788;2023-06-10T07:16:32;10.98;;;9.25;;
27225;SDS011;14732;51.074;3.788;2023-06-10T07:18:58;10.65;;;9.55;;
27225;SDS011;14732;51.074;3.788;2023-06-10T07:21:23;13.25;;;9.77;;
27225;SDS011;14732;51.074;3.788;2023-06-10T07:23:50;11.57;;;10.38;;
27225;SDS011;14732;51.074;3.788;2023-06-10T07:26:21;12.70;;;8.88;;
27225;SDS011;14732;51.074;3.788;2023-06-10T07:28:49;12.40;;;9.85;;
27225;SDS011;14732;51.074;3.788;2023-06-10T07:31:15;10.15;;;8.93;;
27225;SDS011;14732;51.074;3.788;2023-06-10T07:33:42;12.38;;;9.48;;
27225;SDS011;14732;51.074;3.788;2023-06-10T07:36:10;12.38;;;9.57;;
27225;SDS011;14732;51.074;3.788;2023-06-10T07:38:37;10.90;;;9.80;;
27225;SDS011;14732;51.074;3.788;2023-06-10T07:41:03;9.98;;;8.98;;
27225;SDS011;14732;51.074;3.788;2023-06-10T07:43:30;10.77;;;9.65;;
27225;SDS011;14732;51.074;3.788;2023-06-10T07:45:55;11.65;;;9.45;;
27225;SDS011;14732;51.074;3.788;2023-06-10T07:48:21;14.77;;;9.55;;
27225;SDS011;14732;51.074;3.788;2023-06-10T07:50:47;10.68;;;9.57;;
27225;SDS011;14732;51.074;3.788;2023-06-10T07:53:12;9.55;;;8.52;;
27225;SDS011;14732;51.074;3.788;2023-06-10T07:55:38;10.65;;;9.50;;
27225;SDS011;14732;51.074;3.788;2023-06-10T07:58:04;14.38;;;10.20;;
27225;SDS011;14732;51.074;3.788;2023-06-10T08:00:29;11.18;;;9.52;;
27225;SDS011;14732;51.074;3.788;2023-06-10T08:02:55;10.05;;;9.05;;
27225;SDS011;14732;51.074;3.788;2023-06-10T08:05:21;10.10;;;9.07;;
27225;SDS011;14732;51.074;3.788;2023-06-10T08:07:47;11.80;;;8.80;;
27225;SDS011;14732;51.074;3.788;2023-06-10T08:10:13;10.32;;;8.48;;
27225;SDS011;14732;51.074;3.788;2023-06-10T08:12:38;10.00;;;9.00;;
27225;SDS011;14732;51.074;3.788;2023-06-10T08:15:04;9.65;;;8.52;;
27225;SDS011;14732;51.074;3.788;2023-06-10T08:17:30;11.10;;;8.52;;
27225;SDS011;14732;51.074;3.788;2023-06-10T08:19:56;12.85;;;9.13;;
27225;SDS011;14732;51.074;3.788;2023-06-10T08:22:22;12.70;;;8.70;;
27225;SDS011;14732;51.074;3.788;2023-06-10T08:24:47;9.88;;;8.82;;
27225;SDS011;14732;51.074;3.788;2023-06-10T08:27:13;9.38;;;8.43;;
27225;SDS011;14732;51.074;3.788;2023-06-10T08:29:39;10.70;;;8.27;;
27225;SDS011;14732;51.074;3.788;2023-06-10T08:32:05;9.15;;;8.25;;
27225;SDS011;14732;51.074;3.788;2023-06-10T08:34:34;9.25;;;8.35;;
27225;SDS011;14732;51.074;3.788;2023-06-10T08:37:01;10.68;;;8.50;;
27225;SDS011;14732;51.074;3.788;2023-06-10T08:39:27;9.73;;;8.23;;
27225;SDS011;14732;51.074;3.788;2023-06-10T08:44:29;11.07;;;7.60;;
27225;SDS011;14732;51.074;3.788;2023-06-10T08:46:58;9.38;;;7.70;;
27225;SDS011;14732;51.074;3.788;2023-06-10T08:49:26;10.10;;;8.05;;
27225;SDS011;14732;51.074;3.788;2023-06-10T08:51:57;10.75;;;7.43;;
27225;SDS011;14732;51.074;3.788;2023-06-10T08:54:25;7.90;;;7.20;;
27225;SDS011;14732;51.074;3.788;2023-06-10T08:59:20;7.65;;;6.95;;
27225;SDS011;14732;51.074;3.788;2023-06-10T09:01:46;6.95;;;6.30;;
27225;SDS011;14732;51.074;3.788;2023-06-10T09:04:13;7.60;;;6.57;;
27225;SDS011;14732;51.074;3.788;2023-06-10T09:06:40;8.98;;;6.65;;
27225;SDS011;14732;51.074;3.788;2023-06-10T09:09:06;6.80;;;6.30;;
27225;SDS011;14732;51.074;3.788;2023-06-10T09:11:34;7.10;;;6.15;;
27225;SDS011;14732;51.074;3.788;2023-06-10T09:14:01;9.25;;;6.53;;
27225;SDS011;14732;51.074;3.788;2023-06-10T09:16:29;9.07;;;6.63;;
27225;SDS011;14732;51.074;3.788;2023-06-10T09:18:57;8.33;;;6.20;;
27225;SDS011;14732;51.074;3.788;2023-06-10T09:21:24;6.63;;;6.03;;
27225;SDS011;14732;51.074;3.788;2023-06-10T09:23:50;7.25;;;6.30;;
27225;SDS011;14732;51.074;3.788;2023-06-10T09:26:16;7.75;;;6.60;;
27225;SDS011;14732;51.074;3.788;2023-06-10T09:28:48;8.20;;;6.63;;
27225;SDS011;14732;51.074;3.788;2023-06-10T09:31:17;7.15;;;6.45;;
27225;SDS011;14732;51.074;3.788;2023-06-10T09:33:46;7.60;;;6.90;;
27225;SDS011;14732;51.074;3.788;2023-06-10T09:36:20;8.13;;;7.40;;
27225;SDS011;14732;51.074;3.788;2023-06-10T09:38:49;9.68;;;7.00;;
27225;SDS011;14732;51.074;3.788;2023-06-10T09:41:15;10.80;;;7.17;;
27225;SDS011;14732;51.074;3.788;2023-06-10T09:43:42;10.02;;;7.18;;
27225;SDS011;14732;51.074;3.788;2023-06-10T09:46:15;7.63;;;6.93;;
27225;SDS011;14732;51.074;3.788;2023-06-10T09:48:43;7.80;;;7.10;;
27225;SDS011;14732;51.074;3.788;2023-06-10T09:51:09;10.13;;;7.43;;
27225;SDS011;14732;51.074;3.788;2023-06-10T09:53:36;8.00;;;7.07;;
27225;SDS011;14732;51.074;3.788;2023-06-10T09:56:01;8.20;;;7.03;;
27225;SDS011;14732;51.074;3.788;2023-06-10T09:58:39;8.23;;;7.43;;
27225;SDS011;14732;51.074;3.788;2023-06-10T10:01:08;10.57;;;7.38;;
27225;SDS011;14732;51.074;3.788;2023-06-10T10:03:48;7.35;;;6.63;;
27225;SDS011;14732;51.074;3.788;2023-06-10T10:06:16;8.13;;;6.90;;
27225;SDS011;14732;51.074;3.788;2023-06-10T10:08:43;7.70;;;6.88;;
27225;SDS011;14732;51.074;3.788;2023-06-10T10:11:10;9.57;;;6.57;;
27225;SDS011;14732;51.074;3.788;2023-06-10T10:13:38;7.72;;;7.03;;
27225;SDS011;14732;51.074;3.788;2023-06-10T10:16:07;10.38;;;6.47;;
27225;SDS011;14732;51.074;3.788;2023-06-10T10:18:43;8.48;;;6.93;;
27225;SDS011;14732;51.074;3.788;2023-06-10T10:21:11;7.45;;;5.95;;
27225;SDS011;14732;51.074;3.788;2023-06-10T10:23:44;6.63;;;5.90;;
27225;SDS011;14732;51.074;3.788;2023-06-10T10:29:12;9.82;;;6.00;;
27225;SDS011;14732;51.074;3.788;2023-06-10T10:31:51;6.32;;;5.75;;
27225;SDS011;14732;51.074;3.788;2023-06-10T10:35:07;6.60;;;6.00;;
27225;SDS011;14732;51.074;3.788;2023-06-10T10:37:12;7.32;;;6.57;;
27225;SDS011;14732;51.074;3.788;2023-06-10T10:39:37;7.10;;;6.40;;
27225;SDS011;14732;51.074;3.788;2023-06-10T10:42:05;8.50;;;6.40;;
27225;SDS011;14732;51.074;3.788;2023-06-10T10:44:35;7.18;;;5.68;;
27225;SDS011;14732;51.074;3.788;2023-06-10T10:49:32;8.35;;;5.90;;
27225;SDS011;14732;51.074;3.788;2023-06-10T10:52:00;8.38;;;6.47;;
27225;SDS011;14732;51.074;3.788;2023-06-10T10:54:31;9.60;;;6.60;;
27225;SDS011;14732;51.074;3.788;2023-06-10T10:59:43;6.43;;;5.47;;
27225;SDS011;14732;51.074;3.788;2023-06-10T11:02:09;6.60;;;6.00;;
27225;SDS011;14732;51.074;3.788;2023-06-10T11:04:35;8.25;;;5.63;;
27225;SDS011;14732;51.074;3.788;2023-06-10T11:07:07;7.80;;;5.80;;
27225;SDS011;14732;51.074;3.788;2023-06-10T11:09:33;6.68;;;5.97;;
27225;SDS011;14732;51.074;3.788;2023-06-10T11:11:59;6.35;;;5.78;;
27225;SDS011;14732;51.074;3.788;2023-06-10T11:14:28;6.68;;;6.07;;
27225;SDS011;14732;51.074;3.788;2023-06-10T11:16:58;6.88;;;6.18;;
27225;SDS011;14732;51.074;3.788;2023-06-10T11:22:00;6.65;;;6.07;;
27225;SDS011;14732;51.074;3.788;2023-06-10T11:24:28;6.88;;;5.90;;
27225;SDS011;14732;51.074;3.788;2023-06-10T11:26:54;6.90;;;6.20;;
27225;SDS011;14732;51.074;3.788;2023-06-10T11:29:39;8.52;;;6.50;;
27225;SDS011;14732;51.074;3.788;2023-06-10T11:32:05;7.18;;;6.57;;
27225;SDS011;14732;51.074;3.788;2023-06-10T11:34:32;6.85;;;6.25;;
27225;SDS011;14732;51.074;3.788;2023-06-10T11:36:57;7.25;;;6.40;;
27225;SDS011;14732;51.074;3.788;2023-06-10T11:39:25;8.32;;;6.53;;
27225;SDS011;14732;51.074;3.788;2023-06-10T11:41:51;11.50;;;6.93;;
27225;SDS011;14732;51.074;3.788;2023-06-10T11:44:17;8.30;;;6.82;;
27225;SDS011;14732;51.074;3.788;2023-06-10T11:46:43;8.05;;;6.50;;
27225;SDS011;14732;51.074;3.788;2023-06-10T11:49:10;7.30;;;6.63;;
27225;SDS011;14732;51.074;3.788;2023-06-10T11:51:40;7.05;;;6.22;;
27225;SDS011;14732;51.074;3.788;2023-06-10T11:54:09;7.15;;;6.45;;
27225;SDS011;14732;51.074;3.788;2023-06-10T11:56:35;7.55;;;6.85;;
27225;SDS011;14732;51.074;3.788;2023-06-10T11:59:01;11.55;;;6.40;;
27225;SDS011;14732;51.074;3.788;2023-06-10T12:01:36;7.75;;;6.28;;
27225;SDS011;14732;51.074;3.788;2023-06-10T12:04:14;7.05;;;6.35;;
27225;SDS011;14732;51.074;3.788;2023-06-10T12:06:51;8.18;;;6.40;;
27225;SDS011;14732;51.074;3.788;2023-06-10T12:11:50;6.75;;;6.15;;
27225;SDS011;14732;51.074;3.788;2023-06-10T12:14:16;10.18;;;6.53;;
27225;SDS011;14732;51.074;3.788;2023-06-10T12:17:35;11.38;;;6.20;;
27225;SDS011;14732;51.074;3.788;2023-06-10T12:20:03;7.18;;;5.32;;
27225;SDS011;14732;51.074;3.788;2023-06-10T12:22:36;9.25;;;5.93;;
27225;SDS011;14732;51.074;3.788;2023-06-10T12:25:06;7.88;;;6.38;;
27225;SDS011;14732;51.074;3.788;2023-06-10T12:27:33;8.50;;;6.20;;
27225;SDS011;14732;51.074;3.788;2023-06-10T12:30:00;6.30;;;5.80;;
27225;SDS011;14732;51.074;3.788;2023-06-10T12:35:05;7.97;;;6.30;;
27225;SDS011;14732;51.074;3.788;2023-06-10T12:37:32;13.30;;;6.07;;
27225;SDS011;14732;51.074;3.788;2023-06-10T12:40:02;9.75;;;5.95;;
27225;SDS011;14732;51.074;3.788;2023-06-10T12:42:29;6.63;;;5.82;;
27225;SDS011;14732;51.074;3.788;2023-06-10T12:44:56;9.55;;;6.20;;
27225;SDS011;14732;51.074;3.788;2023-06-10T12:49:58;7.05;;;6.13;;
27225;SDS011;14732;51.074;3.788;2023-06-10T12:52:25;7.63;;;6.68;;
27225;SDS011;14732;51.074;3.788;2023-06-10T12:54:51;6.25;;;5.65;;
27225;SDS011;14732;51.074;3.788;2023-06-10T12:57:17;9.63;;;6.22;;
27225;SDS011;14732;51.074;3.788;2023-06-10T12:59:43;11.35;;;6.57;;
27225;SDS011;14732;51.074;3.788;2023-06-10T13:02:15;9.30;;;6.55;;
27225;SDS011;14732;51.074;3.788;2023-06-10T13:04:43;9.43;;;6.22;;
27225;SDS011;14732;51.074;3.788;2023-06-10T13:07:09;7.72;;;6.25;;
27225;SDS011;14732;51.074;3.788;2023-06-10T13:09:35;8.60;;;6.35;;
27225;SDS011;14732;51.074;3.788;2023-06-10T13:12:01;7.97;;;6.45;;
27225;SDS011;14732;51.074;3.788;2023-06-10T13:14:27;6.60;;;6.00;;
27225;SDS011;14732;51.074;3.788;2023-06-10T13:16:53;11.25;;;6.35;;
27225;SDS011;14732;51.074;3.788;2023-06-10T13:19:20;6.55;;;5.95;;
27225;SDS011;14732;51.074;3.788;2023-06-10T13:21:49;7.15;;;6.05;;
27225;SDS011;14732;51.074;3.788;2023-06-10T13:24:14;13.60;;;6.88;;
27225;SDS011;14732;51.074;3.788;2023-06-10T13:26:40;10.45;;;6.18;;
27225;SDS011;14732;51.074;3.788;2023-06-10T13:29:06;7.18;;;6.00;;
27225;SDS011;14732;51.074;3.788;2023-06-10T13:31:33;7.30;;;6.22;;
27225;SDS011;14732;51.074;3.788;2023-06-10T13:33:59;7.00;;;6.30;;
27225;SDS011;14732;51.074;3.788;2023-06-10T13:36:25;7.10;;;6.38;;
27225;SDS011;14732;51.074;3.788;2023-06-10T13:38:50;8.18;;;6.68;;
27225;SDS011;14732;51.074;3.788;2023-06-10T13:41:19;7.20;;;6.50;;
27225;SDS011;14732;51.074;3.788;2023-06-10T13:43:46;8.30;;;6.85;;
27225;SDS011;14732;51.074;3.788;2023-06-10T13:46:12;8.80;;;7.00;;
27225;SDS011;14732;51.074;3.788;2023-06-10T13:48:38;7.68;;;6.97;;
27225;SDS011;14732;51.074;3.788;2023-06-10T13:51:03;7.53;;;6.65;;
27225;SDS011;14732;51.074;3.788;2023-06-10T13:53:29;7.65;;;6.90;;
27225;SDS011;14732;51.074;3.788;2023-06-10T13:55:55;7.10;;;6.40;;
27225;SDS011;14732;51.074;3.788;2023-06-10T13:58:20;11.70;;;6.93;;
27225;SDS011;14732;51.074;3.788;2023-06-10T14:00:46;9.57;;;6.50;;
27225;SDS011;14732;51.074;3.788;2023-06-10T14:03:15;14.95;;;7.00;;
27225;SDS011;14732;51.074;3.788;2023-06-10T14:05:42;7.88;;;6.68;;
27225;SDS011;14732;51.074;3.788;2023-06-10T14:08:08;7.43;;;6.63;;
27225;SDS011;14732;51.074;3.788;2023-06-10T14:10:36;7.50;;;6.68;;
27225;SDS011;14732;51.074;3.788;2023-06-10T14:13:02;8.20;;;6.50;;
27225;SDS011;14732;51.074;3.788;2023-06-10T14:15:36;8.32;;;6.45;;
27225;SDS011;14732;51.074;3.788;2023-06-10T14:18:02;7.47;;;6.78;;
27225;SDS011;14732;51.074;3.788;2023-06-10T14:20:29;9.02;;;6.60;;
27225;SDS011;14732;51.074;3.788;2023-06-10T14:25:24;7.03;;;6.38;;
27225;SDS011;14732;51.074;3.788;2023-06-10T14:27:50;8.70;;;6.93;;
27225;SDS011;14732;51.074;3.788;2023-06-10T14:30:16;8.50;;;6.85;;
27225;SDS011;14732;51.074;3.788;2023-06-10T14:32:42;9.45;;;6.47;;
27225;SDS011;14732;51.074;3.788;2023-06-10T14:35:09;7.95;;;6.82;;
27225;SDS011;14732;51.074;3.788;2023-06-10T14:37:35;7.78;;;6.85;;
27225;SDS011;14732;51.074;3.788;2023-06-10T14:40:06;7.45;;;6.70;;
27225;SDS011;14732;51.074;3.788;2023-06-10T14:42:33;9.45;;;6.28;;
27225;SDS011;14732;51.074;3.788;2023-06-10T14:44:59;6.95;;;6.25;;
27225;SDS011;14732;51.074;3.788;2023-06-10T14:47:27;7.72;;;6.05;;
27225;SDS011;14732;51.074;3.788;2023-06-10T14:49:53;7.47;;;6.78;;
27225;SDS011;14732;51.074;3.788;2023-06-10T14:52:18;7.93;;;6.93;;
27225;SDS011;14732;51.074;3.788;2023-06-10T14:54:44;7.18;;;6.53;;
27225;SDS011;14732;51.074;3.788;2023-06-10T14:57:12;6.88;;;6.20;;
27225;SDS011;14732;51.074;3.788;2023-06-10T14:59:37;9.02;;;6.13;;
27225;SDS011;14732;51.074;3.788;2023-06-10T15:02:03;10.40;;;6.53;;
27225;SDS011;14732;51.074;3.788;2023-06-10T15:04:29;8.98;;;6.25;;
27225;SDS011;14732;51.074;3.788;2023-06-10T15:06:54;9.60;;;6.15;;
27225;SDS011;14732;51.074;3.788;2023-06-10T15:09:23;9.27;;;5.95;;
27225;SDS011;14732;51.074;3.788;2023-06-10T15:11:49;14.00;;;6.28;;
27225;SDS011;14732;51.074;3.788;2023-06-10T15:14:15;9.40;;;6.45;;